Time;durP1;ratioP1;P1;durP2;ratioP2;P2;SDS_P1;SDS_P2;PMS_P1;PMS_P2;Temp;Humidity;BMP_temperature;BMP_pressure;BME280_temperature;BME280_humidity;BME280_pressure;Samples;Min_cycle;Max_cycle;Signal;HPM_P1;HPM_P2
2022/12/04 00:01:12;;;;;;;2.95;2.42;;;;;;;4.02;79.22;100449.00;5061000;28;20559;-50
2022/12/04 00:03:39;;;;;;;5.90;2.10;;;;;;;4.02;79.28;100448.16;5063259;28;20128;-54
2022/12/04 00:06:10;;;;;;;6.35;2.45;;;;;;;4.01;78.86;100442.16;5059475;28;20127;-53
2022/12/04 00:08:37;;;;;;;;;;;;;;;3.96;78.89;100448.84;5058134;28;20095;-50
2022/12/04 00:11:06;;;;;;;2.88;0.70;;;;;;;4.00;78.56;100448.09;5058899;28;20538;-52
2022/12/04 00:13:34;;;;;;;4.38;2.28;;;;;;;4.02;78.53;100450.72;5061493;28;20135;-53
2022/12/04 00:16:03;;;;;;;3.88;0.90;;;;;;;4.03;78.92;100445.66;5061055;28;20199;-52
2022/12/04 00:18:30;;;;;;;3.45;2.08;;;;;;;4.03;79.31;100444.78;5057267;28;20519;-51
2022/12/04 00:20:56;;;;;;;1.63;1.33;;;;;;;4.04;78.90;100444.81;5062828;28;20068;-52
2022/12/04 00:23:23;;;;;;;3.28;1.75;;;;;;;4.03;79.01;100445.66;5060625;28;20107;-49
2022/12/04 00:25:52;;;;;;;3.35;1.67;;;;;;;4.01;78.77;100447.28;5059248;28;20128;-53
2022/12/04 00:28:18;;;;;;;4.07;2.33;;;;;;;3.96;78.55;100444.56;5057985;28;20037;-53
2022/12/04 00:30:45;;;;;;;4.78;2.17;;;;;;;3.94;78.76;100440.22;5059057;28;20147;-50
2022/12/04 00:33:12;;;;;;;3.47;1.35;;;;;;;3.91;78.57;100440.13;5053995;28;20404;-49
2022/12/04 00:35:39;;;;;;;3.72;2.35;;;;;;;3.86;79.19;100430.59;5058007;28;20077;-52
2022/12/04 00:38:06;;;;;;;4.00;1.92;;;;;;;3.82;78.79;100436.44;5055301;28;20053;-54
2022/12/04 00:40:33;;;;;;;2.53;2.05;;;;;;;3.80;79.00;100438.13;5058728;28;20405;-52
2022/12/04 00:42:59;;;;;;;2.80;1.58;;;;;;;3.79;78.80;100428.69;5058661;28;20134;-50
2022/12/04 00:45:26;;;;;;;5.38;3.72;;;;;;;3.79;78.58;100431.25;5044430;28;20068;-52
2022/12/04 00:47:53;;;;;;;3.88;1.58;;;;;;;3.82;78.63;100426.19;5044290;28;20146;-51
2022/12/04 00:50:20;;;;;;;2.47;1.52;;;;;;;3.83;78.75;100425.41;5044223;28;20130;-54
2022/12/04 00:52:46;;;;;;;3.15;1.48;;;;;;;3.86;79.04;100427.19;5038791;28;20111;-55
2022/12/04 00:55:13;;;;;;;2.47;1.88;;;;;;;3.86;78.85;100419.50;5044133;28;20048;-54
2022/12/04 00:57:40;;;;;;;7.30;1.50;;;;;;;3.84;78.65;100414.31;5045885;28;20450;-52
2022/12/04 01:00:07;;;;;;;3.10;1.77;;;;;;;3.82;78.68;100415.94;5045921;28;20053;-55
2022/12/04 01:02:34;;;;;;;3.35;2.50;;;;;;;3.78;78.86;100403.03;5041182;28;20076;-53
2022/12/04 01:05:01;;;;;;;6.80;2.03;;;;;;;3.73;78.52;100402.88;5043600;28;20049;-50
2022/12/04 01:07:27;;;;;;;4.22;2.45;;;;;;;3.70;78.83;100405.34;5045069;28;20045;-50
2022/12/04 01:09:54;;;;;;;5.13;2.33;;;;;;;3.66;78.68;100406.06;5047818;28;20069;-53
2022/12/04 01:12:21;;;;;;;5.13;2.05;;;;;;;3.60;78.65;100412.75;5047788;28;20127;-52
2022/12/04 01:14:47;;;;;;;4.53;1.90;;;;;;;3.56;78.49;100407.47;5048191;28;20053;-51
2022/12/04 01:17:14;;;;;;;7.70;2.17;;;;;;;3.52;78.70;100406.50;5048718;28;20079;-50
2022/12/04 01:19:41;;;;;;;5.47;2.42;;;;;;;3.48;78.57;100414.91;5044717;28;20114;-53
2022/12/04 01:22:07;;;;;;;2.80;2.25;;;;;;;3.45;78.30;100410.53;5044649;28;20110;-53
2022/12/04 01:24:34;;;;;;;5.15;2.42;;;;;;;3.43;78.62;100406.19;5048335;28;20076;-52
2022/12/04 01:27:01;;;;;;;4.75;2.08;;;;;;;3.41;78.42;100403.59;5045197;28;20092;-54
2022/12/04 01:29:27;;;;;;;4.13;2.15;;;;;;;3.41;78.36;100397.59;5045019;28;20108;-51
2022/12/04 01:31:54;;;;;;;9.98;2.25;;;;;;;3.41;78.36;100402.72;5047227;28;20091;-51
2022/12/04 01:34:21;;;;;;;5.40;2.67;;;;;;;3.43;79.12;100399.41;5043227;28;20198;-52
2022/12/04 01:36:47;;;;;;;3.83;2.50;;;;;;;3.44;78.35;100400.25;5044636;28;20209;-51
2022/12/04 01:39:14;;;;;;;2.92;1.80;;;;;;;3.46;78.29;100393.50;5043723;28;20128;-54
2022/12/04 01:41:40;;;;;;;5.28;2.17;;;;;;;3.44;79.19;100390.00;5047256;28;20128;-55
2022/12/04 01:44:25;;;;;;;5.90;3.22;;;;;;;3.43;78.26;100388.28;5047286;28;20040;-52
2022/12/04 01:46:54;;;;;;;6.35;2.47;;;;;;;3.41;78.41;100393.34;5043508;28;20095;-50
2022/12/04 01:49:30;;;;;;;6.10;1.50;;;;;;;3.38;79.00;100392.38;5040354;28;20461;-52
2022/12/04 01:52:01;;;;;;;5.57;2.17;;;;;;;3.36;79.05;100399.13;5044970;28;20084;-53
2022/12/04 01:54:35;;;;;;;7.05;2.80;;;;;;;3.32;78.72;100393.91;5043373;28;20053;-50
2022/12/04 01:57:20;;;;;;;4.88;2.10;;;;;;;3.28;78.89;100396.34;5045059;28;20568;-51
2022/12/04 02:02:31;;;;;;;9.50;3.00;;;;;;;3.72;77.58;100394.31;5058237;28;20403;-52
2022/12/04 02:04:59;;;;;;;7.50;2.08;;;;;;;3.43;78.63;100393.38;5039197;28;20049;-50
2022/12/04 02:07:26;;;;;;;6.03;2.13;;;;;;;3.31;78.82;100387.06;5038437;28;20077;-51
2022/12/04 02:09:54;;;;;;;4.80;2.10;;;;;;;3.28;79.37;100384.38;5033472;28;20052;-50
2022/12/04 02:12:35;;;;;;;3.97;1.70;;;;;;;3.25;79.32;100381.75;5023606;28;20092;-51
2022/12/04 02:15:27;;;;;;;6.75;1.95;;;;;;;3.19;78.49;100382.41;5022048;28;20059;-49
2022/12/04 02:23:40;;;;;;;3.95;1.83;;;;;;;3.16;79.42;100384.88;5041096;27;20417;-52
2022/12/04 02:34:28;;;;;;;7.75;1.58;;;;;;;3.19;79.19;100386.66;5065966;27;20406;-52
2022/12/04 02:37:02;;;;;;;8.95;1.90;;;;;;;3.19;79.38;100386.66;5038784;28;20084;-48
2022/12/04 02:39:39;;;;;;;8.73;1.92;;;;;;;3.17;79.18;100383.16;5035451;28;20061;-49
2022/12/04 02:42:19;;;;;;;6.35;1.45;;;;;;;3.16;79.10;100389.13;5054327;28;20044;-53
2022/12/04 02:44:52;;;;;;;4.15;1.63;;;;;;;3.13;78.91;100379.66;5055207;28;20041;-52
2022/12/04 02:47:22;;;;;;;7.82;2.45;;;;;;;3.11;78.27;100377.84;5054813;28;20132;-48
2022/12/04 02:49:54;;;;;;;6.38;1.73;;;;;;;3.07;79.10;100376.88;5053589;28;20609;-52
2022/12/04 02:52:30;;;;;;;5.10;1.48;;;;;;;3.03;78.75;100375.03;5052803;28;20125;-52
2022/12/04 02:55:03;;;;;;;9.45;2.20;;;;;;;3.00;78.44;100375.81;5052915;28;20556;-50
2022/12/04 02:57:43;;;;;;;4.85;1.95;;;;;;;2.99;78.85;100368.94;5057662;28;20098;-53
2022/12/04 03:00:10;;;;;;;9.25;2.35;;;;;;;2.97;79.17;100360.34;5054168;28;20053;-55
2022/12/04 03:02:47;;;;;;;6.30;1.15;;;;;;;2.95;79.38;100372.22;5053221;28;20147;-50
2022/12/04 03:05:22;;;;;;;5.88;1.63;;;;;;;2.91;78.31;100368.69;5057281;28;20076;-51
2022/12/04 03:07:56;;;;;;;6.63;2.17;;;;;;;2.89;79.17;100361.78;5056811;28;20077;-51
2022/12/04 03:10:29;;;;;;;6.60;1.73;;;;;;;2.87;78.91;100361.72;5054583;28;20137;-54
2022/12/04 03:13:05;;;;;;;4.25;1.63;;;;;;;2.89;79.51;100364.34;5054294;28;20110;-52
2022/12/04 03:15:41;;;;;;;6.45;1.63;;;;;;;2.88;78.62;100366.03;5054770;28;20041;-52
2022/12/04 03:20:56;;;;;;;7.93;2.10;;;;;;;2.92;78.57;100357.66;5060776;27;20396;-50
2022/12/04 03:23:30;;;;;;;8.18;2.28;;;;;;;2.94;79.32;100366.22;5056625;28;20048;-54
2022/12/04 03:31:21;;;;;;;7.57;3.05;;;;;;;3.06;78.69;100355.53;5042293;27;20405;-52
2022/12/04 03:33:51;;;;;;;11.43;3.47;;;;;;;3.08;78.62;100356.44;5021488;28;20076;-51
2022/12/04 03:36:24;;;;;;;8.35;3.25;;;;;;;3.12;79.53;100348.88;5020453;28;20091;-49
2022/12/04 03:44:22;;;;;;;7.57;2.97;;;;;;;3.20;79.61;100350.00;5088248;27;20394;-50
2022/12/04 03:49:37;;;;;;;7.70;3.58;;;;;;;3.25;79.35;100356.16;5032868;27;20410;-52
2022/12/04 03:52:26;;;;;;;6.65;3.60;;;;;;;3.28;79.54;100351.09;5015303;28;20042;-51
2022/12/04 03:55:00;;;;;;;9.95;2.75;;;;;;;3.32;78.72;100347.81;5018829;28;20466;-53
2022/12/04 03:57:31;;;;;;;6.93;3.83;;;;;;;3.34;79.11;100340.19;5018132;28;20062;-51
2022/12/04 04:00:05;;;;;;;10.63;5.43;;;;;;;3.35;78.79;100341.94;5020068;28;20077;-53
2022/12/04 04:02:36;;;;;;;8.07;3.72;;;;;;;3.39;79.07;100337.78;5021003;28;20140;-52
2022/12/04 04:05:07;;;;;;;11.40;4.30;;;;;;;3.43;79.30;100334.50;5018532;28;20059;-53
2022/12/04 04:07:41;;;;;;;9.57;4.43;;;;;;;3.43;78.65;100340.50;5015985;28;20043;-53
2022/12/04 04:10:20;;;;;;;8.93;4.10;;;;;;;3.45;79.71;100333.72;5022059;28;20053;-49
2022/12/04 04:24:29;;;;;;;9.52;4.10;;;;;;;3.56;78.55;100321.25;5017819;28;20077;-52
2022/12/04 04:26:57;;;;;;;7.82;2.08;;;;;;;3.58;79.16;100324.72;5017598;28;20508;-50
2022/12/04 04:29:24;;;;;;;8.70;3.67;;;;;;;3.56;78.69;100336.63;5017036;28;20132;-49
2022/12/04 04:32:10;;;;;;;11.63;4.35;;;;;;;3.53;78.71;100341.66;5022183;28;20049;-52
2022/12/04 04:43:01;;;;;;;12.48;2.35;;;;;;;3.54;78.43;100335.69;5060376;27;20398;-51
2022/12/04 04:45:35;;;;;;;8.30;3.38;;;;;;;3.55;78.94;100334.88;5019862;28;20573;-50
2022/12/04 04:48:10;;;;;;;9.80;2.05;;;;;;;3.57;79.10;100332.34;5020000;28;20069;-54
2022/12/04 04:50:37;;;;;;;10.32;2.33;;;;;;;3.59;78.88;100336.69;5019037;28;20085;-49
2022/12/04 04:53:09;;;;;;;11.32;2.45;;;;;;;3.59;78.74;100336.69;5039207;28;20041;-54
2022/12/04 04:55:37;;;;;;;9.73;2.58;;;;;;;3.61;79.05;100341.88;5024658;28;20108;-50
2022/12/04 04:58:14;;;;;;;10.07;2.63;;;;;;;3.63;78.99;100336.78;5016663;28;20077;-53
2022/12/04 05:03:25;;;;;;;9.18;2.47;;;;;;;3.66;79.08;100327.53;5034830;28;20399;-53
2022/12/04 05:05:52;;;;;;;9.90;2.83;;;;;;;3.67;79.36;100328.38;4982533;28;20042;-51
2022/12/04 05:08:18;;;;;;;8.77;2.25;;;;;;;3.68;79.22;100330.13;4981287;28;20101;-50
2022/12/04 05:10:45;;;;;;;6.15;2.05;;;;;;;3.68;79.28;100330.13;4981152;28;20073;-51
2022/12/04 05:13:12;;;;;;;6.85;2.40;;;;;;;3.66;78.89;100330.09;4984813;28;20142;-53
2022/12/04 05:15:39;;;;;;;6.93;2.78;;;;;;;3.65;79.66;100325.75;4982140;28;20077;-53
2022/12/04 05:18:06;;;;;;;7.65;2.47;;;;;;;3.65;78.95;100324.91;4983674;28;20046;-53
2022/12/04 05:20:33;;;;;;;8.77;2.63;;;;;;;3.63;79.52;100323.97;4982158;28;20561;-51
2022/12/04 05:22:59;;;;;;;15.32;2.83;;;;;;;3.64;79.10;100325.75;4981728;28;20042;-51
2022/12/04 05:25:26;;;;;;;7.50;2.33;;;;;;;3.63;79.01;100323.97;4983838;28;20085;-51
2022/12/04 05:27:53;;;;;;;5.72;1.73;;;;;;;3.64;79.03;100325.75;4983743;28;20066;-53
2022/12/04 05:30:19;;;;;;;6.72;2.13;;;;;;;3.65;78.89;100325.75;4983195;28;20081;-50
2022/12/04 05:32:46;;;;;;;7.53;2.58;;;;;;;3.66;79.20;100326.66;4982834;28;20330;-51
2022/12/04 05:35:13;;;;;;;9.05;2.38;;;;;;;3.66;79.04;100319.84;4980608;28;20058;-53
2022/12/04 05:37:39;;;;;;;7.65;3.10;;;;;;;3.68;79.03;100327.56;4983901;28;20450;-52
2022/12/04 05:40:07;;;;;;;7.88;3.20;;;;;;;3.69;79.31;100322.47;4982355;28;20166;-50
2022/12/04 05:42:34;;;;;;;9.55;2.58;;;;;;;3.69;79.10;100326.75;4994916;28;20078;-51
2022/12/04 05:45:00;;;;;;;7.90;3.08;;;;;;;3.67;79.19;100325.81;4980362;28;20043;-52
2022/12/04 05:47:27;;;;;;;8.73;2.90;;;;;;;3.65;79.57;100314.66;4983829;28;20054;-54
2022/12/04 05:49:54;;;;;;;5.30;1.75;;;;;;;3.64;79.28;100318.91;4981732;28;20121;-51
2022/12/04 05:52:20;;;;;;;7.20;3.00;;;;;;;3.60;79.10;100328.22;4982074;28;20050;-50
2022/12/04 05:54:47;;;;;;;9.15;4.00;;;;;;;3.60;79.14;100330.78;4982487;28;20081;-50
2022/12/04 05:57:14;;;;;;;6.07;2.60;;;;;;;3.61;79.28;100331.63;4983520;28;20062;-53
2022/12/04 05:59:40;;;;;;;7.25;2.90;;;;;;;3.63;79.46;100331.66;4983748;28;20053;-51
2022/12/04 06:02:07;;;;;;;7.07;3.17;;;;;;;3.64;79.48;100333.44;4979463;28;20078;-53
2022/12/04 06:04:36;;;;;;;6.50;2.25;;;;;;;3.66;79.57;100331.78;4984459;28;20058;-51
2022/12/04 06:07:03;;;;;;;7.55;3.42;;;;;;;3.66;80.02;100329.22;4982905;28;20117;-54
2022/12/04 06:09:29;;;;;;;9.77;3.25;;;;;;;3.68;79.68;100337.81;4980780;28;20085;-51
2022/12/04 06:11:57;;;;;;;13.95;3.17;;;;;;;3.68;79.55;100330.13;4981592;28;20074;-52
2022/12/04 06:14:24;;;;;;;8.77;2.58;;;;;;;3.69;79.78;100331.88;4971065;28;20082;-52
2022/12/04 06:16:50;;;;;;;10.80;3.38;;;;;;;3.71;79.67;100337.88;4971243;28;20050;-53
2022/12/04 06:19:18;;;;;;;9.30;2.88;;;;;;;3.73;79.67;100349.06;4970913;28;20054;-53
2022/12/04 06:21:46;;;;;;;8.63;2.03;;;;;;;3.73;80.28;100338.81;4966579;28;20058;-51
2022/12/04 06:24:16;;;;;;;7.45;3.38;;;;;;;3.76;79.22;100338.91;4970146;28;20097;-50
2022/12/04 06:26:43;;;;;;;8.70;3.72;;;;;;;3.75;79.95;100332.03;4985793;28;20725;-53
2022/12/04 06:29:30;;;;;;;8.80;2.88;;;;;;;3.75;79.58;100337.16;4968313;28;20502;-50
2022/12/04 06:31:57;;;;;;;8.18;3.13;;;;;;;3.76;79.87;100333.78;4970151;28;20120;-50
2022/12/04 06:34:24;;;;;;;9.88;2.88;;;;;;;3.77;80.12;100338.09;4968697;28;20046;-50
2022/12/04 06:36:51;;;;;;;8.52;2.70;;;;;;;3.78;79.79;100337.25;4968688;28;20561;-51
2022/12/04 06:39:17;;;;;;;8.73;2.33;;;;;;;3.78;80.03;100339.81;4968506;28;20137;-51
2022/12/04 06:41:46;;;;;;;11.95;3.03;;;;;;;3.78;79.47;100346.66;4966074;28;20046;-51
2022/12/04 06:44:14;;;;;;;7.05;3.10;;;;;;;3.76;80.09;100333.78;4968278;28;20053;-50
2022/12/04 06:46:41;;;;;;;8.35;3.50;;;;;;;3.74;79.89;100343.13;4970243;28;23934;-52
2022/12/04 06:49:12;;;;;;;7.80;2.92;;;;;;;3.77;79.65;100330.41;4969428;28;20568;-54
2022/12/04 06:51:39;;;;;;;9.80;3.33;;;;;;;3.78;79.96;100329.56;4966372;28;20125;-53
2022/12/04 06:54:07;;;;;;;8.40;2.65;;;;;;;3.79;79.39;100328.75;4969466;28;20082;-51
2022/12/04 06:56:34;;;;;;;8.60;2.63;;;;;;;3.79;79.74;100318.50;4968371;28;20043;-53
2022/12/04 06:59:02;;;;;;;9.77;3.25;;;;;;;3.81;80.16;100316.84;4968749;28;20070;-53
2022/12/04 07:01:31;;;;;;;9.57;2.80;;;;;;;3.82;80.02;100317.72;4967288;28;20042;-51
2022/12/04 07:04:00;;;;;;;12.60;2.92;;;;;;;3.81;80.11;100321.97;4966319;28;20049;-53
2022/12/04 07:11:41;;;;;;;16.95;4.85;;;;;;;4.28;79.37;100313.03;5097908;27;20403;-52
2022/12/04 07:14:09;;;;;;;13.00;3.10;;;;;;;4.06;80.10;100306.44;5045692;27;20049;-51
2022/12/04 07:16:36;;;;;;;9.45;3.05;;;;;;;4.03;80.51;100316.59;5056504;28;20527;-55
2022/12/04 07:19:08;;;;;;;7.57;2.80;;;;;;;4.01;80.47;100319.13;5061392;28;20048;-50
2022/12/04 07:21:35;;;;;;;13.30;2.92;;;;;;;4.00;80.42;100322.50;5058300;28;20094;-52
2022/12/04 07:24:01;;;;;;;10.57;3.60;;;;;;;3.99;80.61;100315.66;5060595;28;20139;-50
2022/12/04 07:26:29;;;;;;;7.38;3.05;;;;;;;4.01;80.55;100324.25;5061059;28;20080;-51
2022/12/04 07:28:57;;;;;;;11.77;3.80;;;;;;;4.04;80.56;100324.34;5060717;28;20075;-50
2022/12/04 07:31:26;;;;;;;8.90;3.78;;;;;;;4.03;80.58;100325.16;5052514;28;20854;-53
2022/12/04 07:33:53;;;;;;;13.35;2.70;;;;;;;4.05;80.85;100320.09;5053625;28;20048;-50
2022/12/04 07:36:22;;;;;;;10.18;3.03;;;;;;;4.05;80.51;100323.50;5055114;28;20077;-52
2022/12/04 07:38:49;;;;;;;9.88;2.75;;;;;;;4.08;80.29;100327.84;5059553;28;20451;-51
2022/12/04 07:41:16;;;;;;;12.57;2.75;;;;;;;4.08;79.36;100326.16;5061539;28;20062;-51
2022/12/04 07:43:43;;;;;;;9.60;2.78;;;;;;;4.09;80.43;100332.16;5061484;28;20140;-52
2022/12/04 07:46:13;;;;;;;7.40;3.08;;;;;;;4.09;80.06;100327.88;5063054;28;20091;-52
2022/12/04 07:48:40;;;;;;;10.00;3.33;;;;;;;4.10;79.92;100324.53;5060253;28;20094;-50
2022/12/04 07:51:10;;;;;;;11.35;3.40;;;;;;;4.11;79.84;100326.25;5058838;28;20139;-52
2022/12/04 07:53:37;;;;;;;10.20;4.70;;;;;;;4.08;79.75;100315.91;5058901;28;20079;-50
2022/12/04 07:56:05;;;;;;;12.52;3.85;;;;;;;4.08;79.81;100325.28;5060827;28;20757;-51
2022/12/04 07:58:32;;;;;;;14.10;4.32;;;;;;;4.05;79.55;100331.19;5058379;28;20127;-53
2022/12/04 08:01:19;;;;;;;14.88;4.43;;;;;;;4.03;79.22;100338.00;5060061;28;20040;-54
2022/12/04 08:03:48;;;;;;;17.13;4.53;;;;;;;4.04;78.74;100342.28;5052859;28;20041;-50
2022/12/04 08:06:17;;;;;;;10.18;3.58;;;;;;;4.01;78.95;100349.03;5056501;28;20052;-52
2022/12/04 08:08:44;;;;;;;12.02;3.78;;;;;;;4.03;79.33;100352.47;5059712;28;20091;-54
2022/12/04 08:11:13;;;;;;;12.82;3.92;;;;;;;4.04;79.20;100344.84;5056094;28;20130;-50
2022/12/04 08:13:39;;;;;;;11.73;3.85;;;;;;;4.05;79.11;100350.84;5057892;28;20492;-52
2022/12/04 08:16:08;;;;;;;12.13;3.88;;;;;;;4.02;78.44;100346.47;5060378;28;20110;-51
2022/12/04 08:18:36;;;;;;;16.38;5.10;;;;;;;3.98;78.21;100349.78;5059309;28;20053;-51
2022/12/04 08:21:06;;;;;;;12.15;4.70;;;;;;;3.93;78.57;100366.72;5054038;28;20049;-52
2022/12/04 08:23:33;;;;;;;;;;;;;;;3.93;79.01;100366.72;5044664;28;20072;-52
2022/12/04 08:26:00;;;;;;;21.23;5.90;;;;;;;3.93;78.28;100366.72;5044034;28;19928;-51
2022/12/04 08:28:28;;;;;;;21.02;6.03;;;;;;;3.97;79.11;100363.44;5042358;28;20048;-52
2022/12/04 08:30:55;;;;;;;21.45;6.47;;;;;;;3.94;78.93;100365.91;5045152;28;20140;-51
2022/12/04 08:33:21;;;;;;;19.92;7.22;;;;;;;3.94;78.85;100369.34;5046987;28;20045;-49
2022/12/04 08:35:48;;;;;;;16.35;5.68;;;;;;;3.92;78.72;100370.13;5042856;28;20068;-50
2022/12/04 08:38:15;;;;;;;16.13;5.47;;;;;;;3.94;78.79;100374.47;5044321;28;20087;-52
2022/12/04 08:40:41;;;;;;;19.52;6.80;;;;;;;3.95;78.79;100370.22;5040196;28;20186;-53
2022/12/04 08:43:08;;;;;;;20.58;6.68;;;;;;;3.91;78.57;100365.78;5045566;28;20056;-52
2022/12/04 08:45:34;;;;;;;26.40;7.80;;;;;;;3.95;79.04;100372.78;5041600;28;20076;-55
2022/12/04 08:48:01;;;;;;;19.75;6.22;;;;;;;3.92;78.75;100370.97;5047227;28;20103;-51
2022/12/04 08:50:27;;;;;;;18.40;6.50;;;;;;;3.90;78.97;100366.63;5043139;28;20110;-52
2022/12/04 08:52:54;;;;;;;22.55;6.90;;;;;;;3.94;78.71;100373.59;5041169;28;20109;-53
2022/12/04 08:55:21;;;;;;;18.88;6.60;;;;;;;3.96;78.57;100374.50;5040767;28;20130;-53
2022/12/04 08:57:51;;;;;;;16.92;7.03;;;;;;;3.96;78.72;100377.06;5041406;28;20049;-52
2022/12/04 09:00:18;;;;;;;18.33;5.82;;;;;;;3.94;78.49;100378.72;5042377;28;20045;-51
2022/12/04 09:02:48;;;;;;;21.50;7.40;;;;;;;3.96;78.64;100377.06;5040334;28;20049;-51
2022/12/04 09:05:15;;;;;;;14.70;6.22;;;;;;;3.95;78.23;100383.03;5046049;28;20072;-54
2022/12/04 09:07:41;;;;;;;18.70;6.68;;;;;;;3.95;78.07;100388.16;5040405;28;20554;-50
2022/12/04 09:10:09;;;;;;;25.30;8.48;;;;;;;3.98;78.16;100383.09;5045056;28;20059;-51
2022/12/04 09:12:35;;;;;;;23.58;7.65;;;;;;;3.97;78.11;100389.94;5037023;28;20053;-55
2022/12/04 09:15:02;;;;;;;21.58;6.95;;;;;;;3.99;77.84;100382.31;5043138;28;20049;-52
2022/12/04 09:17:29;;;;;;;21.33;7.97;;;;;;;3.99;78.17;100382.31;5038330;28;20085;-52
2022/12/04 09:19:55;;;;;;;16.02;6.45;;;;;;;3.93;77.41;100382.09;5044198;28;20136;-54
2022/12/04 09:22:26;;;;;;;23.83;8.05;;;;;;;3.97;77.91;100389.06;5040811;28;20809;-52
2022/12/04 09:25:13;;;;;;;19.80;6.68;;;;;;;3.98;77.87;100383.09;5041954;28;20051;-55
2022/12/04 09:27:41;;;;;;;20.63;8.30;;;;;;;4.00;77.95;100394.28;5045809;28;20138;-51
2022/12/04 09:30:09;;;;;;;20.50;6.53;;;;;;;4.01;77.89;100390.88;5047281;28;20049;-47
2022/12/04 09:32:36;;;;;;;26.83;9.32;;;;;;;4.07;77.68;100388.53;5041486;28;20124;-52
2022/12/04 09:35:04;;;;;;;23.70;7.95;;;;;;;4.09;77.97;100394.53;5042383;28;20048;-53
2022/12/04 09:37:32;;;;;;;20.95;8.23;;;;;;;4.11;77.74;100390.34;5042392;28;20052;-52
2022/12/04 09:39:59;;;;;;;23.52;9.13;;;;;;;4.10;77.53;100393.75;5043772;28;20084;-51
2022/12/04 09:42:51;;;;;;;22.85;8.35;;;;;;;4.10;77.20;100398.00;5040508;28;20648;-53
2022/12/04 09:45:22;;;;;;;19.77;6.93;;;;;;;4.08;77.90;100407.31;5041312;28;20151;-51
2022/12/04 09:47:52;;;;;;;21.00;7.10;;;;;;;4.11;77.55;100408.28;5041544;28;20044;-51
2022/12/04 09:50:28;;;;;;;20.85;7.88;;;;;;;4.14;77.80;100411.75;5038551;28;20123;-52
2022/12/04 09:53:04;;;;;;;23.15;6.53;;;;;;;4.13;77.59;100415.16;5040074;28;20077;-54
2022/12/04 09:55:40;;;;;;;24.80;8.32;;;;;;;4.16;77.27;100412.69;5042776;28;20139;-51
2022/12/04 09:58:13;;;;;;;25.55;8.38;;;;;;;4.20;76.97;100423.09;5041746;28;20041;-53
2022/12/04 10:00:45;;;;;;;23.65;7.75;;;;;;;4.19;77.54;100415.34;5041531;28;20073;-50
2022/12/04 10:03:15;;;;;;;23.67;9.00;;;;;;;4.23;77.89;100427.44;5045101;28;20080;-51
2022/12/04 10:08:24;;;;;;;24.33;10.45;;;;;;;4.27;77.86;100423.25;5002043;28;20894;-51
2022/12/04 10:13:48;;;;;;;22.50;7.70;;;;;;;4.24;77.56;100424.03;5089405;27;20391;-55
2022/12/04 10:24:54;;;;;;;24.05;8.45;;;;;;;4.33;77.38;100441.38;5083648;27;20402;-52
2022/12/04 10:27:47;;;;;;;26.48;9.07;;;;;;;4.34;77.57;100435.41;5054588;28;20076;-53
2022/12/04 10:32:58;;;;;;;28.35;9.00;;;;;;;4.37;77.67;100433.84;5058064;28;20415;-49
2022/12/04 10:35:28;;;;;;;25.48;8.88;;;;;;;4.41;77.63;100441.59;5044023;28;20049;-51
2022/12/04 10:38:01;;;;;;;22.90;8.00;;;;;;;4.43;77.92;100439.94;5030557;28;20456;-54
2022/12/04 10:43:15;;;;;;;23.98;9.18;;;;;;;4.43;77.53;100439.94;5037205;27;20415;-53
2022/12/04 10:45:42;;;;;;;23.13;7.30;;;;;;;4.44;77.71;100441.69;5021727;28;20137;-53
2022/12/04 10:48:21;;;;;;;27.02;8.45;;;;;;;4.44;77.04;100436.56;5017332;28;20080;-52
2022/12/04 10:50:48;;;;;;;24.95;8.73;;;;;;;4.44;77.54;100441.69;5020647;28;20564;-53
2022/12/04 10:53:15;;;;;;;24.48;8.95;;;;;;;4.45;77.61;100433.16;5019681;28;20132;-50
2022/12/04 10:55:42;;;;;;;25.35;8.90;;;;;;;4.46;77.48;100434.91;5020939;28;20046;-50
2022/12/04 10:58:18;;;;;;;28.02;9.00;;;;;;;4.45;77.27;100434.03;5024708;28;20076;-52
2022/12/04 11:01:02;;;;;;;24.60;8.95;;;;;;;4.45;77.85;100438.28;5021826;28;20829;-49
2022/12/04 11:03:29;;;;;;;21.83;7.22;;;;;;;4.45;77.61;100433.16;5020868;28;20045;-49
2022/12/04 11:06:02;;;;;;;22.40;8.00;;;;;;;4.43;77.35;100435.66;5022878;28;20042;-51
2022/12/04 11:08:39;;;;;;;16.65;5.75;;;;;;;4.40;77.43;100435.63;5023565;28;20045;-51
2022/12/04 11:11:10;;;;;;;28.67;9.63;;;;;;;4.43;77.55;100434.81;5019554;28;20127;-50
2022/12/04 11:13:37;;;;;;;24.00;8.10;;;;;;;4.42;77.56;100433.94;5020846;28;20188;-52
2022/12/04 11:16:06;;;;;;;25.98;8.40;;;;;;;4.43;77.50;100434.81;5022199;28;20128;-51
2022/12/04 11:18:46;;;;;;;17.02;7.90;;;;;;;4.44;77.52;100436.56;5021050;28;20533;-52
2022/12/04 11:21:17;;;;;;;21.88;7.53;;;;;;;4.45;77.73;100433.16;5022079;28;20077;-56
2022/12/04 11:23:47;;;;;;;26.08;8.20;;;;;;;4.47;77.71;100432.41;5018828;28;20494;-51
2022/12/04 11:26:17;;;;;;;28.02;8.68;;;;;;;4.47;77.70;100422.13;5020503;28;20577;-52
2022/12/04 11:28:52;;;;;;;23.27;8.25;;;;;;;4.52;77.48;100423.97;5022780;28;20172;-53
2022/12/04 11:31:21;;;;;;;25.23;8.00;;;;;;;4.53;77.96;100436.84;5021990;28;20652;-51
2022/12/04 11:33:53;;;;;;;28.48;8.77;;;;;;;4.56;78.11;100425.78;5019696;28;20107;-52
2022/12/04 11:36:31;;;;;;;25.27;8.30;;;;;;;4.54;78.06;100422.28;5019125;28;20046;-53
2022/12/04 11:39:19;;;;;;;27.77;8.95;;;;;;;4.54;78.04;100428.31;5012848;28;20611;-53
2022/12/04 11:41:46;;;;;;;22.23;8.30;;;;;;;4.57;78.27;100418.13;5000723;28;20081;-53
2022/12/04 11:47:02;;;;;;;22.30;9.93;;;;;;;4.63;77.58;100413.16;5025963;27;20405;-52
2022/12/04 11:49:31;;;;;;;20.08;8.95;;;;;;;4.63;77.38;100418.28;5001797;28;20045;-52
2022/12/04 11:52:25;;;;;;;23.27;9.05;;;;;;;4.65;78.16;100409.75;5003771;28;20058;-56
2022/12/04 12:25:22;;;;;;;19.92;9.13;;;;;;;4.95;77.54;100403.72;5040463;27;20410;-55
2022/12/04 12:33:23;;;;;;;22.90;8.20;;;;;;;4.86;77.43;100381.22;5120639;27;20379;-50
2022/12/04 12:36:09;;;;;;;21.50;8.60;;;;;;;4.75;77.31;100371.56;5104587;28;20070;-53
2022/12/04 12:39:00;;;;;;;18.98;7.45;;;;;;;4.79;76.68;100369.09;5080108;28;20071;-51
2022/12/04 12:41:38;;;;;;;14.68;7.20;;;;;;;4.86;76.66;100366.72;5078193;28;20472;-52
2022/12/04 12:46:48;;;;;;;12.55;4.85;;;;;;;4.94;76.66;100371.19;5035887;27;20926;-53
2022/12/04 12:52:00;;;;;;;15.43;6.10;;;;;;;5.06;75.95;100379.19;5048470;28;20401;-54
2022/12/04 12:59:51;;;;;;;22.52;7.25;;;;;;;5.14;75.85;100385.38;5123753;27;20372;-53
2022/12/04 13:05:03;;;;;;;17.02;7.07;;;;;;;5.18;76.19;100383.78;5030362;27;20410;-53
2022/12/04 13:08:09;;;;;;;13.55;7.00;;;;;;;5.18;75.49;100385.47;5017783;28;20140;-52
2022/12/04 13:10:43;;;;;;;13.18;6.18;;;;;;;5.19;75.21;100382.06;5009077;28;20161;-51
2022/12/04 13:13:18;;;;;;;18.08;7.15;;;;;;;5.20;76.12;100388.94;5021818;28;20049;-52
2022/12/04 13:15:52;;;;;;;13.73;7.25;;;;;;;5.17;74.85;100388.88;5022045;28;20085;-50
2022/12/04 13:18:27;;;;;;;14.55;6.80;;;;;;;5.20;75.54;100388.94;5021530;28;20073;-53
2022/12/04 13:20:58;;;;;;;13.93;6.57;;;;;;;5.22;75.17;100397.53;5023507;28;20556;-52
2022/12/04 13:42:24;;;;;;;18.35;6.18;;;;;;;5.39;75.04;100374.84;5057812;27;20406;-52
2022/12/04 13:44:58;;;;;;;16.63;6.10;;;;;;;5.40;74.59;100372.31;5020945;28;20065;-51
2022/12/04 13:47:30;;;;;;;11.63;5.50;;;;;;;5.43;75.33;100370.66;5014875;28;20088;-51
2022/12/04 13:50:26;;;;;;;16.20;5.70;;;;;;;5.42;74.86;100374.03;5016090;28;20136;-51
2022/12/04 13:52:54;;;;;;;14.73;6.90;;;;;;;5.45;74.21;100374.13;5011039;28;20394;-54
2022/12/04 14:00:41;;;;;;;16.33;6.95;;;;;;;5.87;72.99;100368.22;5089274;27;20414;-55
2022/12/04 14:03:29;;;;;;;13.85;6.05;;;;;;;5.62;73.73;100388.25;5067312;28;20060;-56
2022/12/04 14:05:55;;;;;;;15.38;5.78;;;;;;;5.60;73.72;100384.75;5067087;28;20114;-50
2022/12/04 14:08:25;;;;;;;18.35;6.38;;;;;;;5.59;73.86;100380.44;5066402;28;20429;-52
2022/12/04 14:11:00;;;;;;;13.88;5.20;;;;;;;5.56;74.04;100364.97;5061748;28;20148;-54
2022/12/04 14:13:39;;;;;;;12.20;5.22;;;;;;;5.56;75.11;100364.97;5060172;28;20041;-53
2022/12/04 14:16:16;;;;;;;14.20;5.38;;;;;;;5.56;73.68;100367.53;5070107;28;20073;-52
2022/12/04 14:18:47;;;;;;;21.00;9.07;;;;;;;5.57;75.06;100368.41;5066578;28;20120;-52
2022/12/04 14:21:14;;;;;;;21.50;8.68;;;;;;;5.55;74.78;100376.06;5054775;28;20106;-54